Time;durP1;ratioP1;P1;durP2;ratioP2;P2;SDS_P1;SDS_P2;PMS_P1;PMS_P2;Temp;Humidity;BMP_temperature;BMP_pressure;BME280_temperature;BME280_humidity;BME280_pressure;Samples;Min_cycle;Max_cycle;Signal;HPM_P1;HPM_P2
2022/03/28 00:01:19;;;;;;;;;20.50;19.25;;;;;16.50;29.69;99436.31;4833692;28;103251;-53
2022/03/28 00:03:46;;;;;;;;;18.50;16.75;;;;;16.49;29.64;99418.25;4833922;28;104072;-53
2022/03/28 00:06:13;;;;;;;;;20.50;19.50;;;;;16.49;29.65;99414.66;4831336;28;102498;-53
2022/03/28 00:08:40;;;;;;;;;24.25;22.75;;;;;16.49;29.71;99414.66;4833946;28;102785;-53
2022/03/28 00:11:07;;;;;;;;;26.75;20.00;;;;;16.47;30.18;99403.16;4832681;28;102362;-56
2022/03/28 00:13:35;;;;;;;;;29.25;24.50;;;;;16.47;30.06;99416.81;4840310;28;104292;-53
2022/03/28 00:16:03;;;;;;;;;21.00;19.00;;;;;16.45;29.93;99413.44;4837360;28;102166;-53
2022/03/28 00:18:30;;;;;;;;;21.25;21.00;;;;;16.44;30.14;99411.75;4837414;28;102426;-53
2022/03/28 00:20:57;;;;;;;;;23.75;20.00;;;;;16.43;30.13;99412.84;4837384;28;104225;-54
2022/03/28 00:23:24;;;;;;;;;27.25;21.50;;;;;16.42;29.69;99409.28;4837115;28;104106;-54
2022/03/28 00:25:52;;;;;;;;;26.25;21.75;;;;;16.41;29.50;99398.56;4835218;28;102272;-53
2022/03/28 00:28:19;;;;;;;;;25.75;22.75;;;;;16.41;29.46;99393.09;4832062;28;102447;-53
2022/03/28 00:30:46;;;;;;;;;23.00;19.00;;;;;16.40;29.71;99386.78;4842652;28;103681;-54
2022/03/28 00:33:15;;;;;;;;;21.25;19.50;;;;;16.41;29.44;99393.94;4830184;28;103862;-53
2022/03/28 00:35:42;;;;;;;;;25.00;19.75;;;;;16.40;29.79;99399.59;4838334;28;102196;-54
2022/03/28 00:38:11;;;;;;;;;24.50;20.75;;;;;16.39;29.77;99398.78;4837604;28;102703;-54
2022/03/28 00:40:38;;;;;;;;;25.75;22.25;;;;;16.39;29.97;99393.31;4836887;28;102476;-54
2022/03/28 00:43:08;;;;;;;;;23.50;21.50;;;;;16.38;29.71;99399.84;4852348;28;104083;-53
2022/03/28 00:45:36;;;;;;;;;24.00;22.50;;;;;16.37;29.49;99391.88;4834627;28;102469;-53
2022/03/28 00:48:04;;;;;;;;;26.50;22.25;;;;;16.36;29.58;99401.94;4834995;28;102203;-53
2022/03/28 00:50:32;;;;;;;;;23.50;19.75;;;;;16.36;30.10;99392.91;4831296;28;103735;-54
2022/03/28 00:52:59;;;;;;;;;26.25;21.75;;;;;16.35;29.58;99388.50;4836603;28;104083;-53
2022/03/28 00:55:26;;;;;;;;;26.25;21.50;;;;;16.34;29.56;99382.25;4836739;28;102263;-53
2022/03/28 00:57:53;;;;;;;;;26.00;22.50;;;;;16.33;30.26;99382.44;4835333;28;102168;-53
2022/03/28 01:00:21;;;;;;;;;23.25;20.75;;;;;16.30;29.74;99371.97;4839446;28;102251;-53
2022/03/28 01:02:48;;;;;;;;;28.50;21.00;;;;;16.31;29.72;99376.34;4826195;28;104084;-53
2022/03/28 01:05:15;;;;;;;;;30.50;23.00;;;;;16.31;29.83;99373.63;4823645;28;102583;-53
2022/03/28 01:07:43;;;;;;;;;33.00;24.75;;;;;16.31;30.11;99365.44;4801062;28;102219;-53
2022/03/28 01:10:10;;;;;;;;;28.50;22.75;;;;;16.32;29.77;99367.13;4827237;28;103026;-55
2022/03/28 01:12:42;;;;;;;;;29.75;24.75;;;;;16.30;29.87;99366.53;4834296;28;104023;-53
2022/03/28 01:15:16;;;;;;;;;24.25;21.25;;;;;16.29;30.15;99367.56;4814522;28;102643;-55
2022/03/28 01:20:32;;;;;;;;;27.75;25.75;;;;;16.26;29.87;99344.25;4830169;28;102222;-54
2022/03/28 01:22:59;;;;;;;;;26.50;22.50;;;;;16.27;30.43;99353.28;4835599;28;104096;-53
2022/03/28 01:25:29;;;;;;;;;28.75;25.75;;;;;16.25;30.07;99348.06;4830965;28;102110;-53
2022/03/28 01:28:00;;;;;;;;;25.75;22.50;;;;;16.25;29.73;99339.03;4837000;28;102630;-53
2022/03/28 01:30:28;;;;;;;;;27.50;21.75;;;;;16.24;30.15;99335.47;4835651;28;102217;-53
2022/03/28 01:32:56;;;;;;;;;28.75;25.00;;;;;16.24;30.18;99331.91;4837848;28;104105;-53
2022/03/28 01:35:39;;;;;;;;;33.00;26.75;;;;;16.22;30.13;99336.72;4853915;28;102634;-53
2022/03/28 01:38:08;;;;;;;;;24.50;19.00;;;;;16.20;30.03;99336.97;4834995;28;103136;-53
2022/03/28 01:40:37;;;;;;;;;30.50;25.75;;;;;16.19;30.10;99335.28;4837781;28;102491;-54
2022/03/28 01:43:04;;;;;;;;;32.00;28.75;;;;;16.17;29.83;99331.94;4837914;28;109217;-54
2022/03/28 01:45:32;;;;;;;;;27.50;24.00;;;;;16.19;30.46;99335.28;4852186;28;102272;-54
2022/03/28 01:47:59;;;;;;;;;31.75;26.25;;;;;16.17;30.01;99325.63;4825522;28;103444;-53
2022/03/28 01:50:26;;;;;;;;;29.75;26.75;;;;;16.11;30.04;99318.34;4841432;28;102661;-54
2022/03/28 01:52:53;;;;;;;;;25.00;22.75;;;;;16.19;29.83;99329.00;4852677;28;103355;-53
2022/03/28 01:55:20;;;;;;;;;32.75;27.25;;;;;16.17;29.96;99326.47;4840713;28;102603;-54
2022/03/28 01:57:47;;;;;;;;;31.50;26.50;;;;;16.17;29.98;99326.47;4837024;28;102483;-53
2022/03/28 02:00:16;;;;;;;;;33.75;29.25;;;;;16.17;29.66;99317.44;4838906;28;102593;-53
2022/03/28 02:02:45;;;;;;;;;26.50;22.00;;;;;16.17;29.88;99321.03;4839947;28;103991;-54
2022/03/28 02:05:16;;;;;;;;;26.75;23.50;;;;;16.16;30.18;99321.25;4839685;28;102890;-54
2022/03/28 02:07:46;;;;;;;;;19.50;19.00;;;;;16.14;30.26;99313.28;4852980;28;102453;-54
2022/03/28 02:10:15;;;;;;;;;30.25;26.00;;;;;16.12;30.13;99311.84;4839250;28;102578;-54
2022/03/28 02:12:42;;;;;;;;;24.75;21.00;;;;;16.11;30.29;99301.97;4836369;28;104186;-54
2022/03/28 02:15:10;;;;;;;;;33.75;27.50;;;;;16.11;30.01;99311.00;4841782;28;107130;-54
2022/03/28 02:17:38;;;;;;;;;27.75;24.75;;;;;16.10;30.39;99303.03;4845430;28;102830;-54
2022/03/28 02:20:05;;;;;;;;;25.25;23.00;;;;;16.10;30.20;99313.94;4836830;28;102580;-54
2022/03/28 02:22:33;;;;;;;;;33.25;28.50;;;;;16.07;29.90;99309.78;4838199;28;103580;-54
2022/03/28 02:25:01;;;;;;;;;28.25;26.00;;;;;16.08;29.67;99305.97;4836881;28;102798;-53
2022/03/28 02:27:28;;;;;;;;;32.75;27.00;;;;;16.08;29.88;99295.06;4837341;28;102554;-53
2022/03/28 02:29:55;;;;;;;;;30.00;26.75;;;;;16.02;29.98;99280.41;4845071;28;102271;-53
2022/03/28 02:32:22;;;;;;;;;32.25;27.75;;;;;16.07;30.01;99291.47;4837631;28;104042;-53
2022/03/28 02:34:49;;;;;;;;;25.50;22.50;;;;;16.06;29.95;99281.66;4835870;28;103263;-53
2022/03/28 02:37:16;;;;;;;;;28.75;24.25;;;;;16.05;30.08;99290.88;4831111;28;102546;-53
2022/03/28 02:39:43;;;;;;;;;31.00;24.25;;;;;16.06;30.49;99275.34;4840267;28;102786;-54
2022/03/28 02:42:10;;;;;;;;;29.50;27.00;;;;;16.04;30.09;99280.19;4845152;28;104319;-58
2022/03/28 02:44:37;;;;;;;;;29.00;26.50;;;;;16.03;29.70;99270.31;4842763;28;102126;-54
2022/03/28 02:47:05;;;;;;;;;33.25;28.00;;;;;16.01;30.22;99276.00;4840240;28;102550;-54
2022/03/28 02:49:32;;;;;;;;;24.25;20.75;;;;;16.01;30.24;99275.19;4839071;28;102323;-54
2022/03/28 02:51:59;;;;;;;;;30.00;25.25;;;;;16.01;29.94;99277.91;4822162;28;104198;-54
2022/03/28 02:54:26;;;;;;;;;34.25;27.75;;;;;16.00;30.05;99270.75;4839746;28;102446;-53
2022/03/28 02:56:53;;;;;;;;;31.25;25.25;;;;;15.98;30.64;99273.75;4838153;28;102326;-54
2022/03/28 02:59:20;;;;;;;;;28.25;25.25;;;;;15.99;29.94;99274.53;4833758;28;105143;-54
2022/03/28 03:01:48;;;;;;;;;32.50;29.75;;;;;15.98;29.99;99272.91;4833730;28;104376;-53
2022/03/28 03:04:15;;;;;;;;;31.25;29.50;;;;;15.97;30.14;99276.66;4835566;28;102184;-55
2022/03/28 03:06:42;;;;;;;;;31.75;28.00;;;;;15.98;30.22;99268.28;4837987;28;102436;-54
2022/03/28 03:09:09;;;;;;;;;27.75;27.25;;;;;15.98;30.03;99259.25;4840304;28;102314;-53
2022/03/28 03:11:36;;;;;;;;;23.75;23.25;;;;;15.97;30.04;99258.41;4835510;28;110665;-54
2022/03/28 03:14:05;;;;;;;;;26.75;22.75;;;;;15.96;29.96;99255.91;4835039;28;102925;-54
2022/03/28 03:16:32;;;;;;;;;28.00;26.50;;;;;15.97;29.94;99250.22;4849128;28;102248;-53
2022/03/28 03:18:59;;;;;;;;;27.50;25.00;;;;;15.95;30.34;99246.03;4837286;28;102380;-53
2022/03/28 03:21:26;;;;;;;;;28.75;25.75;;;;;15.94;30.48;99250.66;4836385;28;104038;-53
2022/03/28 03:23:53;;;;;;;;;31.75;26.50;;;;;15.94;29.95;99247.13;4841072;28;102494;-54
2022/03/28 03:26:20;;;;;;;;;29.00;24.00;;;;;15.92;30.21;99251.94;4837529;28;102567;-54
2022/03/28 03:28:47;;;;;;;;;31.50;26.50;;;;;15.92;30.13;99251.94;4846066;28;102232;-54
2022/03/28 03:31:14;;;;;;;;;30.00;25.00;;;;;15.91;30.35;99251.09;4836593;28;103557;-54
2022/03/28 03:33:42;;;;;;;;;27.25;23.75;;;;;15.91;30.15;99245.66;4844258;28;102129;-54
2022/03/28 03:36:09;;;;;;;;;27.75;22.25;;;;;15.90;30.17;99238.50;4841626;28;102487;-54
2022/03/28 03:38:36;;;;;;;;;27.75;23.75;;;;;15.89;30.16;99236.03;4839758;28;102472;-53
2022/03/28 03:41:03;;;;;;;;;30.00;26.00;;;;;15.86;30.00;99240.00;4834899;28;104071;-53
2022/03/28 03:43:30;;;;;;;;;29.75;28.00;;;;;15.86;30.55;99240.00;4836946;28;103154;-53
2022/03/28 03:45:57;;;;;;;;;30.00;26.00;;;;;15.89;29.88;99238.75;4835171;28;102473;-54
2022/03/28 03:48:26;;;;;;;;;26.75;24.00;;;;;15.88;30.57;99245.25;4830512;28;102324;-53
2022/03/28 03:50:54;;;;;;;;;31.75;26.50;;;;;15.87;30.01;99236.22;4825514;28;104345;-53
2022/03/28 03:53:21;;;;;;;;;29.00;24.50;;;;;15.87;29.98;99236.22;4831996;28;103545;-53
2022/03/28 03:55:48;;;;;;;;;24.25;22.50;;;;;15.87;30.27;99227.22;4831660;28;102177;-54
2022/03/28 03:58:15;;;;;;;;;27.00;23.00;;;;;15.86;30.09;99229.09;4828062;28;102216;-53
2022/03/28 04:00:42;;;;;;;;;29.25;25.25;;;;;15.86;30.24;99223.66;4838840;28;104049;-55
2022/03/28 04:03:09;;;;;;;;;27.25;23.50;;;;;15.85;30.37;99223.88;4847322;28;103286;-54
2022/03/28 04:05:37;;;;;;;;;28.00;24.25;;;;;15.83;30.08;99226.81;4833446;28;105640;-53
2022/03/28 04:08:05;;;;;;;;;28.25;23.50;;;;;15.84;30.18;99230.38;4830229;28;102178;-54
2022/03/28 04:10:34;;;;;;;;;28.00;25.50;;;;;15.82;30.05;99225.16;4833281;28;104033;-54
2022/03/28 04:13:02;;;;;;;;;25.25;22.00;;;;;15.82;30.27;99235.22;4833134;28;106356;-53
2022/03/28 04:15:29;;;;;;;;;26.50;24.00;;;;;15.82;30.32;99227.88;4834468;28;102190;-53
2022/03/28 04:17:56;;;;;;;;;29.50;26.25;;;;;15.80;30.03;99220.97;4839277;28;102477;-53
2022/03/28 04:20:24;;;;;;;;;26.75;21.50;;;;;15.79;30.10;99228.31;4835243;28;104351;-54
2022/03/28 04:22:51;;;;;;;;;31.50;23.75;;;;;15.78;30.12;99234.81;4839113;28;104772;-54
2022/03/28 04:25:19;;;;;;;;;27.75;22.25;;;;;15.78;30.16;99229.38;4836183;28;102214;-53
2022/03/28 04:27:46;;;;;;;;;31.25;25.50;;;;;15.79;29.83;99236.50;4849808;28;102892;-54
2022/03/28 04:30:13;;;;;;;;;26.50;21.25;;;;;15.78;30.32;99228.53;4835893;28;104098;-53
2022/03/28 04:32:40;;;;;;;;;29.50;23.00;;;;;15.77;30.05;99224.97;4844732;28;102414;-53
2022/03/28 04:35:08;;;;;;;;;28.50;26.50;;;;;15.77;30.18;99222.25;4832260;28;103882;-54
2022/03/28 04:37:39;;;;;;;;;26.25;25.25;;;;;15.77;30.06;99224.13;4835402;28;102245;-53
2022/03/28 04:40:09;;;;;;;;;25.50;21.75;;;;;15.77;30.24;99230.41;4831260;28;107273;-53
2022/03/28 04:42:36;;;;;;;;;29.75;25.25;;;;;15.76;30.21;99223.28;4834959;28;102607;-53
2022/03/28 04:45:04;;;;;;;;;28.25;21.50;;;;;15.75;29.79;99229.81;4832083;28;102611;-54
2022/03/28 04:47:32;;;;;;;;;29.25;23.00;;;;;15.75;30.31;99229.81;4839492;28;110899;-54
2022/03/28 04:49:59;;;;;;;;;28.00;22.00;;;;;15.74;30.18;99225.41;4838955;28;104072;-53
2022/03/28 04:52:26;;;;;;;;;30.25;25.00;;;;;15.73;30.08;99226.47;4835874;28;102365;-53
2022/03/28 04:54:53;;;;;;;;;30.75;24.50;;;;;15.72;29.87;99224.78;4836463;28;103117;-53
2022/03/28 04:57:20;;;;;;;;;27.00;24.00;;;;;15.71;30.11;99223.13;4837315;28;104030;-53
2022/03/28 04:59:47;;;;;;;;;28.50;24.50;;;;;15.72;30.10;99218.50;4837178;28;104038;-53
2022/03/28 05:02:14;;;;;;;;;26.25;20.25;;;;;15.70;29.79;99224.19;4835247;28;102731;-54
2022/03/28 05:04:41;;;;;;;;;26.25;20.50;;;;;15.72;30.16;99219.31;4838285;28;102388;-53
2022/03/28 05:07:09;;;;;;;;;27.50;26.25;;;;;15.71;30.23;99217.69;4837422;28;102192;-53
2022/03/28 05:09:36;;;;;;;;;28.50;24.75;;;;;15.70;29.94;99216.00;4848888;28;103858;-53
2022/03/28 05:12:03;;;;;;;;;24.00;22.00;;;;;15.71;30.20;99217.69;4832857;28;104174;-53
2022/03/28 05:14:30;;;;;;;;;24.00;23.00;;;;;15.71;30.27;99220.41;4827158;28;102517;-53
2022/03/28 05:16:57;;;;;;;;;29.00;21.75;;;;;15.71;30.19;99217.69;4839150;28;102496;-53
2022/03/28 05:19:24;;;;;;;;;25.50;23.75;;;;;15.71;30.67;99216.84;4839717;28;104111;-53
2022/03/28 05:21:51;;;;;;;;;28.25;22.25;;;;;15.71;29.98;99214.94;4835085;28;102370;-53
2022/03/28 05:24:20;;;;;;;;;24.50;23.25;;;;;15.70;29.81;99213.28;4838790;28;102810;-53
2022/03/28 05:26:47;;;;;;;;;20.25;18.75;;;;;15.70;30.37;99209.72;4832082;28;102161;-54
2022/03/28 05:29:15;;;;;;;;;19.00;16.00;;;;;15.70;30.17;99209.72;4841279;28;103816;-54
2022/03/28 05:31:42;;;;;;;;;21.25;20.25;;;;;15.69;30.10;99208.88;4842667;28;106249;-53
2022/03/28 05:34:10;;;;;;;;;23.75;22.75;;;;;15.68;30.16;99209.91;4839203;28;102601;-53
2022/03/28 05:36:38;;;;;;;;;23.25;20.75;;;;;15.68;30.04;99218.09;4843002;28;102617;-53
2022/03/28 05:39:05;;;;;;;;;20.50;19.75;;;;;15.68;29.94;99212.66;4834604;28;104007;-53
2022/03/28 05:41:32;;;;;;;;;27.25;23.00;;;;;15.67;29.92;99212.88;4834365;28;102418;-53
2022/03/28 05:43:59;;;;;;;;;21.50;20.25;;;;;15.68;30.33;99212.66;4833942;28;103188;-53
2022/03/28 05:46:26;;;;;;;;;25.00;22.00;;;;;15.68;30.18;99217.25;4838099;28;102162;-54
2022/03/28 05:48:53;;;;;;;;;22.00;20.25;;;;;15.68;30.31;99206.34;4835772;28;104195;-53
2022/03/28 05:51:20;;;;;;;;;21.25;20.75;;;;;15.69;29.80;99213.47;4831217;28;102197;-54
2022/03/28 05:53:47;;;;;;;;;22.00;19.75;;;;;15.69;30.02;99208.88;4832341;28;102261;-54
2022/03/28 05:56:14;;;;;;;;;21.50;20.00;;;;;15.68;30.18;99204.47;4835138;28;102424;-54
2022/03/28 05:58:41;;;;;;;;;23.25;20.25;;;;;15.69;30.07;99206.16;4838216;28;104136;-53
2022/03/28 06:01:08;;;;;;;;;23.75;17.25;;;;;15.67;30.11;99202.78;4835620;28;102351;-53
2022/03/28 06:03:37;;;;;;;;;26.25;20.75;;;;;15.69;30.07;99208.88;4835846;28;102389;-53
2022/03/28 06:06:07;;;;;;;;;22.75;21.00;;;;;15.68;30.00;99199.00;4835034;28;102204;-53
2022/03/28 06:08:34;;;;;;;;;23.50;19.75;;;;;15.68;29.90;99201.75;4843531;28;104100;-53
2022/03/28 06:11:03;;;;;;;;;20.00;19.25;;;;;15.67;30.17;99200.06;4843040;28;102542;-53
2022/03/28 06:13:31;;;;;;;;;23.75;20.50;;;;;15.68;29.84;99204.47;4837400;28;102505;-53
2022/03/28 06:15:58;;;;;;;;;20.25;18.50;;;;;15.67;30.05;99194.59;4844468;28;102258;-53
2022/03/28 06:18:26;;;;;;;;;19.00;19.00;;;;;15.67;30.11;99193.81;4842077;28;103924;-53
2022/03/28 06:20:53;;;;;;;;;21.25;19.00;;;;;15.67;29.85;99199.25;4840269;28;102463;-54
2022/03/28 06:23:20;;;;;;;;;27.50;21.00;;;;;15.66;30.12;99190.22;4857341;28;102399;-54
2022/03/28 06:25:47;;;;;;;;;26.25;23.00;;;;;15.68;30.02;99196.28;4841396;28;102429;-54
2022/03/28 06:28:15;;;;;;;;;20.25;18.25;;;;;15.68;30.18;99200.91;4840776;28;104077;-54
2022/03/28 06:30:42;;;;;;;;;21.25;18.25;;;;;15.57;29.68;99172.47;4841508;28;102363;-53
2022/03/28 06:33:10;;;;;;;;;22.25;20.25;;;;;15.69;29.99;99199.84;4846984;28;102346;-53
2022/03/28 06:35:39;;;;;;;;;22.00;19.25;;;;;15.70;29.97;99191.47;4838473;28;102267;-53
2022/03/28 06:38:06;;;;;;;;;22.50;19.00;;;;;15.69;29.94;99187.06;4835431;28;104260;-53
2022/03/28 06:40:33;;;;;;;;;21.75;18.50;;;;;15.70;30.17;99194.19;4841444;28;104177;-53
2022/03/28 06:43:00;;;;;;;;;20.50;18.00;;;;;15.70;30.11;99191.47;4835609;28;103847;-53
2022/03/28 06:45:27;;;;;;;;;23.25;19.50;;;;;15.70;30.12;99188.75;4837321;28;102301;-53
2022/03/28 06:47:55;;;;;;;;;21.00;17.75;;;;;15.69;29.87;99176.16;4842094;28;104265;-54
2022/03/28 06:50:42;;;;;;;;;17.25;14.50;;;;;15.69;29.98;99167.13;4836190;28;102119;-53
2022/03/28 06:53:09;;;;;;;;;19.00;17.50;;;;;15.69;30.11;99165.25;4840928;28;102125;-53
2022/03/28 06:55:36;;;;;;;;;21.25;19.25;;;;;15.63;29.52;99160.66;4844991;28;102414;-53
2022/03/28 06:58:03;;;;;;;;;20.00;15.50;;;;;15.70;30.00;99171.53;4837966;28;103744;-53
2022/03/28 07:00:32;;;;;;;;;19.00;15.50;;;;;15.70;29.72;99164.19;4838380;28;102354;-53
2022/03/28 07:02:59;;;;;;;;;16.50;14.50;;;;;15.69;29.90;99165.25;4839981;28;102655;-54
2022/03/28 07:05:28;;;;;;;;;19.25;16.00;;;;;15.72;30.02;99163.97;4843228;28;102455;-53
2022/03/28 07:07:58;;;;;;;;;18.25;16.50;;;;;15.72;30.01;99153.88;4835260;28;103472;-53
2022/03/28 07:10:26;;;;;;;;;19.25;16.75;;;;;15.72;29.83;99148.44;4855375;28;102705;-54
2022/03/28 07:12:59;;;;;;;;;18.50;16.00;;;;;15.73;29.86;99150.13;4838114;28;102365;-54
2022/03/28 07:15:29;;;;;;;;;21.50;16.50;;;;;15.74;30.05;99150.97;4837390;28;102473;-54
2022/03/28 07:18:02;;;;;;;;;20.00;16.25;;;;;15.74;30.08;99146.34;4841099;28;104057;-53
2022/03/28 07:20:30;;;;;;;;;22.00;15.75;;;;;15.74;30.01;99146.34;4837075;28;102404;-53
2022/03/28 07:22:59;;;;;;;;;21.25;17.25;;;;;15.75;30.19;99141.72;4835359;28;102115;-53
2022/03/28 07:25:26;;;;;;;;;23.50;16.00;;;;;15.76;29.85;99132.50;4836197;28;102806;-54
2022/03/28 07:27:53;;;;;;;;;15.25;13.75;;;;;15.75;30.19;99126.22;4840903;28;104143;-53
2022/03/28 07:30:21;;;;;;;;;19.50;14.50;;;;;15.76;30.20;99138.75;4845951;28;102520;-54
2022/03/28 07:32:48;;;;;;;;;16.50;15.25;;;;;15.76;30.06;99138.75;4840697;28;102468;-53
2022/03/28 07:35:17;;;;;;;;;16.00;13.00;;;;;15.77;30.07;99129.53;4841431;28;102662;-54
2022/03/28 07:37:44;;;;;;;;;20.00;15.75;;;;;15.76;29.96;99122.41;4828067;28;104219;-54
2022/03/28 07:40:11;;;;;;;;;20.50;15.25;;;;;15.77;29.99;99121.34;4835864;28;102474;-53
2022/03/28 07:42:40;;;;;;;;;16.50;14.75;;;;;15.77;30.02;99112.31;4839561;28;102259;-53
2022/03/28 07:45:08;;;;;;;;;16.25;14.25;;;;;15.78;29.97;99109.38;4837764;28;102576;-54
2022/03/28 07:47:36;;;;;;;;;20.00;15.50;;;;;15.79;29.89;99108.34;4836656;28;104177;-53
2022/03/28 07:50:04;;;;;;;;;13.00;13.00;;;;;15.81;29.75;99108.09;4836966;28;105906;-53
2022/03/28 07:52:31;;;;;;;;;14.50;13.00;;;;;15.81;29.46;99108.09;4832850;28;102274;-53
2022/03/28 07:55:00;;;;;;;;;11.75;10.50;;;;;15.82;29.75;99102.44;4847084;28;102539;-53
2022/03/28 07:57:27;;;;;;;;;21.50;14.75;;;;;15.83;29.90;99095.94;4852356;28;104243;-53
2022/03/28 07:59:54;;;;;;;;;14.00;12.50;;;;;15.83;30.23;99093.19;4840377;28;102217;-53
2022/03/28 08:02:42;;;;;;;;;16.00;14.50;;;;;15.83;30.09;99093.19;4832783;28;102353;-53
2022/03/28 08:05:10;;;;;;;;;18.00;15.25;;;;;15.84;29.89;99089.44;4840386;28;103352;-53
2022/03/28 08:07:38;;;;;;;;;15.00;14.75;;;;;15.85;30.03;99087.53;4839125;28;104110;-53
2022/03/28 08:10:06;;;;;;;;;13.00;12.00;;;;;15.87;29.71;99075.34;4817391;28;102148;-53
2022/03/28 08:12:33;;;;;;;;;16.25;13.50;;;;;15.87;29.66;99085.41;4836369;28;102364;-53
2022/03/28 08:15:00;;;;;;;;;14.50;12.25;;;;;15.85;30.15;99066.53;4838372;28;102313;-53
2022/03/28 08:17:27;;;;;;;;;14.50;14.00;;;;;15.85;30.01;99071.97;4833963;28;104071;-53
2022/03/28 08:19:54;;;;;;;;;12.75;11.00;;;;;15.86;30.04;99061.91;4833230;28;102179;-53
2022/03/28 08:22:21;;;;;;;;;14.50;13.25;;;;;15.86;29.97;99051.84;4834848;28;102563;-53
2022/03/28 08:24:48;;;;;;;;;15.50;12.50;;;;;15.87;30.12;99053.50;4838576;28;102185;-53
2022/03/28 08:27:15;;;;;;;;;16.25;13.50;;;;;15.88;30.34;99044.28;4837818;28;104325;-53
2022/03/28 08:29:42;;;;;;;;;15.00;12.00;;;;;15.87;30.01;99045.34;4849089;28;102251;-53
2022/03/28 08:32:12;;;;;;;;;14.75;12.25;;;;;15.87;30.09;99039.88;4837305;28;102213;-53
2022/03/28 08:34:39;;;;;;;;;16.50;15.00;;;;;15.90;30.21;99049.50;4839648;28;102141;-53
2022/03/28 08:37:06;;;;;;;;;13.25;11.00;;;;;15.89;30.19;99040.50;4839160;28;104050;-53
2022/03/28 08:39:33;;;;;;;;;12.75;11.25;;;;;15.90;29.97;99036.69;4843367;28;102357;-53
2022/03/28 08:42:00;;;;;;;;;12.75;11.50;;;;;15.90;30.21;99025.78;4835400;28;102182;-54
2022/03/28 08:44:28;;;;;;;;;16.00;12.50;;;;;15.90;30.21;99028.50;4838699;28;102296;-53
2022/03/28 08:46:55;;;;;;;;;13.50;12.00;;;;;15.90;30.06;99024.94;4833918;28;103718;-53
2022/03/28 08:49:22;;;;;;;;;12.50;11.00;;;;;15.91;30.04;99024.72;4833582;28;103679;-53
2022/03/28 08:51:51;;;;;;;;;13.00;12.25;;;;;15.91;30.17;99019.28;4837655;28;102170;-53
2022/03/28 08:54:19;;;;;;;;;11.00;10.50;;;;;15.91;30.33;99016.56;4834679;28;102677;-53
2022/03/28 08:56:47;;;;;;;;;10.50;9.00;;;;;15.92;30.05;99012.78;4836502;28;104071;-53
2022/03/28 08:59:14;;;;;;;;;12.50;11.25;;;;;15.91;30.04;99002.91;4836061;28;102723;-56
2022/03/28 09:01:43;;;;;;;;;13.75;11.50;;;;;15.93;29.99;99006.25;4842064;28;102177;-53
2022/03/28 09:04:12;;;;;;;;;10.25;10.00;;;;;15.95;29.97;98998.69;4824356;28;103470;-53
2022/03/28 09:06:42;;;;;;;;;9.75;9.75;;;;;15.95;29.92;98992.38;4838952;28;109717;-53
2022/03/28 09:09:36;;;;;;;;;11.00;9.50;;;;;15.96;29.88;98991.31;4835095;28;102476;-53
2022/03/28 09:12:08;;;;;;;;;11.75;11.75;;;;;15.96;30.20;98992.16;4836802;28;102635;-53
2022/03/28 09:14:36;;;;;;;;;12.50;10.25;;;;;15.96;29.88;98986.72;4839567;28;102232;-53
2022/03/28 09:17:11;;;;;;;;;11.00;10.00;;;;;15.97;29.86;98972.03;4833503;28;103536;-53
2022/03/28 09:19:55;;;;;;;;;10.25;9.75;;;;;15.98;30.04;98976.44;4835930;28;102653;-53
2022/03/28 09:22:23;;;;;;;;;12.00;11.00;;;;;15.99;29.84;98990.88;4836061;28;102266;-53
2022/03/28 09:24:57;;;;;;;;;11.00;8.75;;;;;15.98;29.76;98981.88;4831518;28;102590;-53
2022/03/28 09:27:28;;;;;;;;;12.00;10.75;;;;;15.99;29.59;98979.97;4843964;28;104147;-53
2022/03/28 09:30:05;;;;;;;;;10.25;9.75;;;;;15.98;30.05;98970.13;4853124;28;102531;-53
2022/03/28 09:32:37;;;;;;;;;10.50;9.00;;;;;16.00;30.00;98971.56;4843993;28;102223;-53
2022/03/28 09:35:12;;;;;;;;;10.00;9.25;;;;;15.98;30.00;98968.25;4850821;28;102431;-53
2022/03/28 09:38:02;;;;;;;;;10.00;9.00;;;;;15.99;30.11;98958.97;4832715;28;110112;-53
2022/03/28 09:40:34;;;;;;;;;10.50;9.00;;;;;16.00;30.23;98957.09;4836482;28;105914;-53
2022/03/28 09:43:04;;;;;;;;;10.50;8.25;;;;;16.01;30.30;98954.13;4840182;28;102264;-53
2022/03/28 09:45:35;;;;;;;;;10.00;10.00;;;;;16.03;30.10;98945.72;4840657;28;102460;-53
2022/03/28 09:48:07;;;;;;;;;11.00;9.75;;;;;16.04;30.03;98947.38;4833196;28;104186;-53
2022/03/28 09:50:39;;;;;;;;;8.00;7.00;;;;;16.04;29.62;98950.09;4840518;28;103967;-54
2022/03/28 09:53:14;;;;;;;;;8.75;8.75;;;;;16.05;30.00;98936.25;4832155;28;102282;-53
2022/03/28 09:55:59;;;;;;;;;11.25;9.50;;;;;16.06;30.04;98937.94;4836864;28;102556;-53
2022/03/28 09:58:45;;;;;;;;;10.25;9.00;;;;;16.07;29.90;98930.59;4839153;28;109080;-53
2022/03/28 10:01:16;;;;;;;;;8.75;8.00;;;;;16.07;29.66;98925.94;4852460;28;102414;-53
2022/03/28 10:03:54;;;;;;;;;10.50;8.75;;;;;16.07;30.08;98919.66;4834751;28;102586;-54
2022/03/28 10:06:22;;;;;;;;;11.00;10.00;;;;;16.10;29.89;98926.56;4839626;28;102425;-53
2022/03/28 10:08:49;;;;;;;;;6.50;6.50;;;;;16.10;29.76;98921.09;4840302;28;109705;-53
2022/03/28 10:11:16;;;;;;;;;10.50;8.25;;;;;16.10;29.79;98900.09;4848412;28;102216;-53
2022/03/28 10:13:44;;;;;;;;;12.25;10.00;;;;;16.10;30.02;98910.19;4842309;28;102615;-53
2022/03/28 10:16:11;;;;;;;;;8.00;8.00;;;;;16.12;30.39;98910.78;4845644;28;102533;-53
2022/03/28 10:18:39;;;;;;;;;8.25;7.50;;;;;16.12;30.32;98895.22;4834441;28;104112;-53
2022/03/28 10:21:08;;;;;;;;;9.00;8.00;;;;;16.13;29.96;98894.19;4840505;28;102310;-53
2022/03/28 10:23:51;;;;;;;;;11.50;9.00;;;;;16.14;30.02;98895.84;4838422;28;102364;-53
2022/03/28 10:26:20;;;;;;;;;7.25;7.00;;;;;16.16;29.78;98892.91;4835283;28;102298;-53
2022/03/28 10:29:00;;;;;;;;;7.50;7.00;;;;;16.18;30.13;98879.84;4852719;28;104075;-54
2022/03/28 10:31:30;;;;;;;;;6.00;6.00;;;;;16.18;30.22;98880.69;4835291;28;102258;-53
2022/03/28 10:34:17;;;;;;;;;9.00;7.75;;;;;16.20;29.71;98877.75;4831967;28;102642;-53
2022/03/28 10:36:44;;;;;;;;;8.75;6.75;;;;;16.21;30.27;98863.03;4854868;28;102418;-53
2022/03/28 10:39:33;;;;;;;;;7.00;6.00;;;;;16.21;29.84;98863.84;4840251;28;108981;-53
2022/03/28 10:42:13;;;;;;;;;7.25;5.50;;;;;16.23;30.46;98860.91;4833401;28;102412;-53
2022/03/28 10:45:09;;;;;;;;;8.00;7.00;;;;;16.24;30.06;98854.38;4837401;28;102233;-53
2022/03/28 10:47:51;;;;;;;;;6.00;5.50;;;;;16.26;30.58;98849.50;4836267;28;102156;-53
2022/03/28 10:50:44;;;;;;;;;8.75;7.50;;;;;16.29;30.21;98846.34;4823374;28;108978;-53
2022/03/28 10:53:14;;;;;;;;;9.00;8.00;;;;;16.30;30.22;98839.81;4841089;28;102094;-53
2022/03/28 10:55:41;;;;;;;;;8.25;6.25;;;;;16.32;30.08;98843.13;4838918;28;102538;-53
2022/03/28 10:58:23;;;;;;;;;8.00;6.50;;;;;16.33;30.27;98834.72;4858023;28;102209;-53
2022/03/28 11:01:09;;;;;;;;;7.50;7.00;;;;;16.36;29.83;98827.97;4851557;28;109838;-53
2022/03/28 11:03:48;;;;;;;;;7.50;5.75;;;;;16.37;29.96;98824.16;4841272;28;102608;-53
2022/03/28 11:06:17;;;;;;;;;5.00;5.00;;;;;16.38;30.31;98818.50;4835624;28;102424;-54
2022/03/28 11:08:56;;;;;;;;;6.00;6.00;;;;;16.40;30.50;98812.78;4826002;28;102395;-53
2022/03/28 11:11:25;;;;;;;;;7.00;6.00;;;;;16.37;29.81;98791.41;4832648;28;108665;-54
2022/03/28 11:14:05;;;;;;;;;5.00;5.00;;;;;16.45;30.32;98793.81;4846404;28;103423;-53
2022/03/28 11:16:50;;;;;;;;;5.75;5.00;;;;;16.49;29.68;98798.56;4833701;28;102398;-53
2022/03/28 11:19:28;;;;;;;;;6.00;6.00;;;;;16.50;30.21;98786.59;4814707;28;103439;-54
2022/03/28 11:22:00;;;;;;;;;6.00;5.00;;;;;16.53;29.69;98779.81;4826565;28;104010;-53
2022/03/28 11:24:47;;;;;;;;;5.75;5.75;;;;;16.55;30.31;98783.16;4828268;28;102572;-53